Time;durP1;ratioP1;P1;durP2;ratioP2;P2;SDS_P1;SDS_P2;PMS_P1;PMS_P2;Temp;Humidity;BMP_temperature;BMP_pressure;BME280_temperature;BME280_humidity;BME280_pressure;Samples;Min_cycle;Max_cycle;Signal;HPM_P1;HPM_P2
2021/03/25 00:01:17;;;;;;;199.30;85.30;;;;;;;3.74;72.97;99124.73;469131;1196;103235;-41
2021/03/25 00:11:22;;;;;;;230.90;94.53;;;;;;;3.70;73.00;99113.81;469153;1196;103252;-41
2021/03/25 00:31:46;;;;;;;193.00;82.20;;;;;;;3.56;72.74;99102.31;468846;1196;103187;-43
2021/03/25 00:41:51;;;;;;;179.35;81.50;;;;;;;3.60;72.99;99098.36;468685;1196;103204;-40
2021/03/25 00:51:55;;;;;;;213.63;91.93;;;;;;;3.54;73.28;99085.95;469057;1196;103194;-41
2021/03/25 01:02:00;;;;;;;221.00;90.10;;;;;;;3.59;73.32;99086.28;468994;1196;103507;-42
2021/03/25 01:12:06;;;;;;;239.50;95.60;;;;;;;3.49;73.40;99077.83;469068;1196;103214;-41
2021/03/25 01:22:10;;;;;;;182.17;81.87;;;;;;;3.51;73.24;99064.58;468825;1196;103568;-41
2021/03/25 01:32:38;;;;;;;216.37;89.10;;;;;;;3.52;73.45;99063.59;469175;1196;103609;-42
2021/03/25 01:42:47;;;;;;;177.87;78.57;;;;;;;3.53;73.57;99054.76;469206;1196;103225;-41
2021/03/25 01:52:51;;;;;;;205.53;92.57;;;;;;;3.57;73.74;99051.64;469000;1196;103634;-42
2021/03/25 02:03:25;;;;;;;191.40;88.23;;;;;;;3.34;73.54;99037.75;468967;1196;103317;-41
2021/03/25 02:13:35;;;;;;;147.87;67.27;;;;;;;3.32;73.74;99034.50;469062;1196;103299;-43
2021/03/25 02:24:11;;;;;;;125.70;63.03;;;;;;;3.34;73.88;99027.30;470203;1164;103184;-40
2021/03/25 02:34:16;;;;;;;116.05;55.40;;;;;;;3.45;73.96;99023.45;469098;1196;103219;-40
2021/03/25 02:44:28;;;;;;;161.00;70.07;;;;;;;3.34;73.97;99019.45;469066;1196;103233;-42
2021/03/25 02:54:32;;;;;;;134.33;63.20;;;;;;;3.16;74.44;99008.45;468863;1196;103598;-43
2021/03/25 03:04:40;;;;;;;109.90;53.95;;;;;;;3.07;74.37;99010.28;468875;1196;103523;-44
2021/03/25 03:14:49;;;;;;;96.15;48.35;;;;;;;3.17;74.60;99007.47;468974;1196;103198;-42
2021/03/25 03:24:54;;;;;;;109.75;55.30;;;;;;;3.06;74.66;99011.27;469004;1196;103344;-43
2021/03/25 03:35:12;;;;;;;105.87;52.33;;;;;;;3.04;74.82;99008.83;469192;1196;103239;-42
2021/03/25 03:45:19;;;;;;;172.97;73.53;;;;;;;2.93;75.27;99008.42;468894;1196;103324;-41
2021/03/25 03:55:24;;;;;;;156.67;73.33;;;;;;;2.80;75.36;99019.41;468889;1196;103232;-42
2021/03/25 04:05:33;;;;;;;122.55;60.25;;;;;;;2.83;75.14;99008.62;469116;1196;103181;-41
2021/03/25 04:15:41;;;;;;;125.50;63.60;;;;;;;2.84;75.47;99017.27;468805;1196;104684;-40
2021/03/25 04:25:52;;;;;;;138.73;68.80;;;;;;;2.85;75.68;99009.28;469016;1196;103641;-42
2021/03/25 04:36:01;;;;;;;157.43;69.97;;;;;;;2.89;75.50;99025.42;468787;1195;103552;-41
2021/03/25 04:46:22;;;;;;;145.13;67.83;;;;;;;2.86;75.48;99025.77;469188;1196;103220;-41
2021/03/25 04:56:28;;;;;;;156.83;69.23;;;;;;;2.88;75.95;99018.58;469037;1196;104678;-42
2021/03/25 05:06:37;;;;;;;144.30;69.20;;;;;;;2.85;75.79;99024.95;469035;1196;103520;-42
2021/03/25 05:17:05;;;;;;;159.00;75.53;;;;;;;2.88;76.12;99032.45;469009;1196;103225;-41
2021/03/25 05:27:09;;;;;;;160.67;76.07;;;;;;;3.03;75.84;99033.33;469103;1196;103286;-41
2021/03/25 05:37:13;;;;;;;259.57;109.93;;;;;;;3.05;76.04;99033.97;469132;1196;103232;-40
2021/03/25 05:47:37;;;;;;;254.17;103.57;;;;;;;3.02;76.43;99041.34;469072;1196;103213;-41
2021/03/25 06:08:10;;;;;;;;;;;;;;;3.28;76.19;99047.08;469181;1203;103274;-42
2021/03/25 06:18:17;;;;;;;161.17;81.20;;;;;;;3.44;76.47;99051.39;468982;1196;103293;-39
2021/03/25 06:28:25;;;;;;;182.73;85.07;;;;;;;3.64;76.26;99055.18;468974;1196;103690;-43
2021/03/25 06:38:31;;;;;;;249.13;106.43;;;;;;;3.73;76.33;99055.11;469185;1196;103258;-41
2021/03/25 06:48:38;;;;;;;229.25;100.25;;;;;;;3.93;76.16;99058.88;469133;1196;103341;-43
2021/03/25 07:09:04;;;;;;;159.55;77.95;;;;;;;4.61;75.91;99065.75;468916;1196;103545;-42
2021/03/25 07:19:12;;;;;;;146.63;72.43;;;;;;;4.96;75.82;99063.36;468782;1196;103207;-41
2021/03/25 07:29:23;;;;;;;198.60;90.73;;;;;;;5.33;75.63;99060.59;469081;1196;103214;-42
2021/03/25 07:39:31;;;;;;;184.17;87.73;;;;;;;5.75;75.22;99064.24;469134;1196;103251;-41
2021/03/25 07:49:38;;;;;;;172.93;84.13;;;;;;;6.03;74.89;99067.75;468879;1196;103587;-43
2021/03/25 07:59:43;;;;;;;162.00;74.70;;;;;;;6.41;74.73;99062.19;469161;1196;103216;-43
2021/03/25 08:09:50;;;;;;;129.10;64.30;;;;;;;6.76;74.19;99069.05;468609;1196;103216;-42
2021/03/25 08:19:56;;;;;;;114.53;56.47;;;;;;;7.21;73.66;99058.13;468748;1196;103216;-43
2021/03/25 08:30:02;;;;;;;102.95;52.35;;;;;;;7.68;73.06;99059.86;469133;1196;104624;-41
2021/03/25 08:40:15;;;;;;;98.77;48.97;;;;;;;8.22;72.32;99054.41;469098;1196;103235;-41
2021/03/25 08:50:33;;;;;;;96.00;47.30;;;;;;;9.11;72.17;99043.27;468832;1196;104992;-41
2021/03/25 09:00:42;;;;;;;89.05;42.60;;;;;;;10.21;70.11;99037.70;469042;1196;103232;-41
2021/03/25 09:10:50;;;;;;;91.70;46.93;;;;;;;10.73;69.12;99044.30;469230;1196;104693;-42
2021/03/25 09:20:57;;;;;;;71.40;41.27;;;;;;;11.34;67.55;99033.55;469028;1196;103181;-44
2021/03/25 09:31:16;;;;;;;69.20;40.47;;;;;;;11.78;66.15;99028.04;468578;1196;103198;-41
2021/03/25 09:41:37;;;;;;;75.50;40.63;;;;;;;11.77;65.02;99027.23;468972;1196;103274;-41
2021/03/25 09:51:43;;;;;;;70.87;42.07;;;;;;;12.30;63.32;99026.39;469234;1196;103255;-42
2021/03/25 10:12:10;;;;;;;75.45;42.25;;;;;;;12.14;59.79;99024.45;469121;1196;103213;-41
2021/03/25 10:22:17;;;;;;;70.00;41.77;;;;;;;12.15;58.24;99015.45;468668;1196;103497;-42
2021/03/25 10:32:23;;;;;;;72.60;44.05;;;;;;;12.75;59.12;99000.05;468630;1196;104912;-43
2021/03/25 10:52:51;;;;;;;72.23;43.70;;;;;;;13.06;58.02;98992.70;469297;1196;103586;-41
2021/03/25 11:02:55;;;;;;;73.70;42.30;;;;;;;12.83;56.21;98983.77;469039;1196;103139;-44
2021/03/25 11:13:21;;;;;;;68.55;41.25;;;;;;;12.96;56.20;98979.22;468825;1196;103523;-43
2021/03/25 11:23:27;;;;;;;78.30;44.03;;;;;;;13.35;56.54;98973.09;468877;1196;103290;-42
2021/03/25 11:44:01;;;;;;;68.57;39.37;;;;;;;13.16;51.24;98959.17;469259;1196;103222;-41
2021/03/25 11:54:21;;;;;;;66.50;40.57;;;;;;;12.83;54.09;98945.81;469152;1196;103594;-42
2021/03/25 12:04:26;;;;;;;66.60;41.57;;;;;;;13.23;54.53;98947.62;468647;1196;103826;-41
2021/03/25 12:14:30;;;;;;;69.20;41.15;;;;;;;13.27;53.76;98930.99;469113;1196;103569;-41
2021/03/25 12:24:35;;;;;;;73.60;45.07;;;;;;;12.93;51.85;98926.61;469238;1196;104624;-41
2021/03/25 12:34:44;;;;;;;78.07;44.90;;;;;;;12.73;51.72;98919.88;468758;1196;103158;-41
2021/03/25 12:44:49;;;;;;;69.63;40.35;;;;;;;12.60;51.71;98912.20;469295;1196;103594;-41
2021/03/25 12:54:53;;;;;;;67.23;40.03;;;;;;;12.69;50.66;98913.44;469052;1196;103191;-42
2021/03/25 13:04:58;;;;;;;66.60;42.20;;;;;;;12.62;52.00;98902.16;469290;1196;103328;-44
2021/03/25 13:15:03;;;;;;;68.60;42.20;;;;;;;12.63;51.51;98901.12;469230;1196;103207;-41
2021/03/25 13:25:08;;;;;;;70.20;42.57;;;;;;;12.58;51.73;98896.53;469118;1196;103242;-42
2021/03/25 13:35:15;;;;;;;68.17;41.63;;;;;;;12.56;51.79;98900.46;469033;1196;103331;-42
2021/03/25 13:45:20;;;;;;;77.33;41.93;;;;;;;12.51;51.14;98882.58;469014;1196;103945;-41
2021/03/25 13:55:26;;;;;;;64.55;38.75;;;;;;;12.44;51.05;98884.56;468981;1196;103383;-41
2021/03/25 14:05:32;;;;;;;72.10;39.00;;;;;;;12.46;51.49;98886.98;469240;1196;104615;-41
2021/03/25 14:15:42;;;;;;;64.03;38.57;;;;;;;12.39;51.83;98886.31;468941;1196;103213;-42
2021/03/25 14:25:48;;;;;;;62.77;39.13;;;;;;;12.36;51.49;98882.30;468984;1196;103328;-41
2021/03/25 14:35:54;;;;;;;67.43;41.27;;;;;;;12.42;51.05;98873.39;468954;1196;104691;-43
2021/03/25 14:46:01;;;;;;;66.57;36.87;;;;;;;12.32;51.91;98869.75;469206;1196;103358;-42
2021/03/25 14:56:06;;;;;;;74.67;38.83;;;;;;;12.09;51.12;98875.91;469268;1196;103557;-41
2021/03/25 15:06:10;;;;;;;57.80;36.83;;;;;;;12.05;51.71;98880.84;468772;1196;103546;-40
2021/03/25 15:16:15;;;;;;;63.20;33.75;;;;;;;12.04;51.43;98873.12;468542;1196;103587;-43
2021/03/25 15:26:20;;;;;;;63.30;36.53;;;;;;;11.89;51.94;98877.07;469165;1196;103523;-42
2021/03/25 15:36:24;;;;;;;61.15;35.90;;;;;;;11.72;51.83;98875.31;468875;1196;103364;-42
2021/03/25 15:46:31;;;;;;;68.83;35.13;;;;;;;11.53;52.46;98878.06;468996;1196;103241;-43
2021/03/25 15:56:35;;;;;;;64.27;36.23;;;;;;;11.41;52.87;98877.27;468941;1196;104665;-42
2021/03/25 16:06:40;;;;;;;70.00;40.95;;;;;;;11.18;53.43;98878.03;469128;1196;103555;-44
2021/03/25 16:16:45;;;;;;;66.67;36.37;;;;;;;11.02;53.67;98884.77;468876;1196;103516;-42
2021/03/25 16:26:50;;;;;;;75.70;40.10;;;;;;;10.78;53.94;98883.09;469015;1196;103555;-41
2021/03/25 16:36:54;;;;;;;72.60;39.30;;;;;;;10.50;54.46;98888.95;469127;1196;103590;-44
2021/03/25 16:46:58;;;;;;;64.03;34.47;;;;;;;10.18;55.05;98904.14;469099;1196;104732;-44
2021/03/25 16:57:03;;;;;;;64.30;37.55;;;;;;;9.80;55.31;98910.41;468858;1196;103593;-44
2021/03/25 17:07:10;;;;;;;67.00;36.80;;;;;;;9.38;55.99;98919.09;469124;1196;103632;-43
2021/03/25 17:17:15;;;;;;;77.43;38.03;;;;;;;8.91;56.44;98916.75;469292;1196;103634;-41
2021/03/25 17:27:19;;;;;;;91.40;40.10;;;;;;;8.50;56.97;98927.69;468981;1196;103580;-41
2021/03/25 17:47:43;;;;;;;105.37;53.03;;;;;;;7.66;58.28;98943.45;469279;1196;103155;-42
2021/03/25 17:57:47;;;;;;;141.80;62.77;;;;;;;7.29;58.58;98955.35;469146;1196;103146;-43
2021/03/25 18:07:52;;;;;;;162.07;71.00;;;;;;;6.95;59.40;98966.82;468835;1196;103280;-42
2021/03/25 18:17:56;;;;;;;149.50;72.30;;;;;;;6.75;59.95;98974.63;468937;1196;103207;-41
2021/03/25 18:28:03;;;;;;;173.47;81.27;;;;;;;6.55;60.32;98984.24;469307;1196;103232;-42
2021/03/25 18:38:11;;;;;;;206.23;94.50;;;;;;;6.37;60.82;98992.63;469018;1196;103555;-41
2021/03/25 18:48:17;;;;;;;224.87;103.37;;;;;;;6.07;61.20;98999.92;469208;1196;103232;-41
2021/03/25 18:58:26;;;;;;;218.10;100.20;;;;;;;5.72;61.88;99005.09;468909;1196;103264;-43
2021/03/25 19:08:33;;;;;;;219.90;97.57;;;;;;;5.44;61.91;99004.20;469081;1196;104694;-41
2021/03/25 19:18:38;;;;;;;200.90;91.33;;;;;;;5.21;62.51;99001.78;469201;1196;103261;-41
2021/03/25 19:28:43;;;;;;;154.17;75.83;;;;;;;5.15;62.95;99011.18;468777;1196;103571;-41
2021/03/25 19:38:50;;;;;;;158.60;75.53;;;;;;;5.11;63.58;99014.36;469229;1196;103232;-41
2021/03/25 19:48:57;;;;;;;137.50;71.10;;;;;;;5.03;63.54;99022.34;468885;1196;103236;-44
2021/03/25 19:59:02;;;;;;;180.67;84.43;;;;;;;4.71;64.05;99021.74;469116;1196;103545;-42
2021/03/25 20:09:09;;;;;;;181.60;89.55;;;;;;;4.54;64.78;99034.23;469220;1196;103216;-41
2021/03/25 20:19:13;;;;;;;216.40;102.03;;;;;;;4.42;65.09;99024.38;469095;1196;104615;-42
2021/03/25 20:29:18;;;;;;;193.00;95.47;;;;;;;4.43;65.27;99033.86;469457;1196;103230;-42
2021/03/25 20:39:22;;;;;;;276.03;137.17;;;;;;;4.51;65.57;99044.27;469221;1195;103523;-41
2021/03/25 20:49:26;;;;;;;355.73;175.53;;;;;;;4.39;65.73;99043.07;469108;1196;103268;-41
2021/03/25 20:59:31;;;;;;;416.03;196.87;;;;;;;4.31;66.23;99047.41;468963;1196;103622;-41
2021/03/25 21:09:40;;;;;;;381.00;175.57;;;;;;;4.22;66.42;99053.70;468925;1196;104390;-41
2021/03/25 21:19:49;;;;;;;394.80;185.83;;;;;;;4.13;67.14;99062.63;468813;1196;103155;-43
2021/03/25 21:29:59;;;;;;;410.00;189.07;;;;;;;4.05;67.32;99060.09;469385;1196;103219;-41
2021/03/25 21:40:09;;;;;;;416.83;191.93;;;;;;;3.89;67.41;99063.66;468809;1196;103514;-43
2021/03/25 21:50:14;;;;;;;394.45;172.75;;;;;;;3.87;67.62;99064.82;469079;1196;103232;-44
2021/03/25 22:00:23;;;;;;;450.30;202.00;;;;;;;3.84;67.77;99068.60;469275;1196;103223;-41
2021/03/25 22:10:27;;;;;;;563.73;241.80;;;;;;;3.73;68.05;99063.77;469058;1196;103578;-41
2021/03/25 22:20:36;;;;;;;592.73;256.07;;;;;;;3.56;68.35;99065.70;468672;1196;103207;-40
2021/03/25 22:30:41;;;;;;;452.07;210.70;;;;;;;3.34;68.43;99077.77;468691;1196;103236;-41
2021/03/25 22:40:48;;;;;;;479.50;216.90;;;;;;;3.37;69.01;99072.20;468820;1196;103584;-45
2021/03/25 22:50:55;;;;;;;518.03;228.47;;;;;;;3.38;68.99;99073.01;469157;1196;103212;-42
2021/03/25 23:01:02;;;;;;;446.15;204.50;;;;;;;3.37;69.01;99077.42;469075;1196;103530;-42
2021/03/25 23:11:10;;;;;;;450.57;203.40;;;;;;;3.34;69.51;99084.80;469076;1196;103329;-41
2021/03/25 23:21:16;;;;;;;411.37;177.37;;;;;;;3.19;69.34;99081.27;468995;1196;103699;-43
2021/03/25 23:31:22;;;;;;;387.20;168.57;;;;;;;3.15;69.91;99085.22;468964;1196;103212;-41
2021/03/25 23:41:27;;;;;;;341.27;148.43;;;;;;;3.11;69.97;99076.10;468811;1196;103207;-41
2021/03/25 23:51:34;;;;;;;327.43;145.17;;;;;;;3.08;69.81;99079.88;469356;1196;103546;-41
